sensor_id;sensor_type;location;lat;lon;timestamp;P1;durP1;ratioP1;P2;durP2;ratioP2
50511;SDS011;36446;47.642;-3.018;2024-01-06T00:00:21;159.50;;;123.93;;
50511;SDS011;36446;47.642;-3.018;2024-01-06T00:02:48;183.88;;;141.05;;
50511;SDS011;36446;47.642;-3.018;2024-01-06T00:05:16;260.05;;;200.20;;
50511;SDS011;36446;47.642;-3.018;2024-01-06T00:07:43;173.23;;;130.40;;
50511;SDS011;36446;47.642;-3.018;2024-01-06T00:10:10;130.63;;;97.80;;
50511;SDS011;36446;47.642;-3.018;2024-01-06T00:12:37;108.20;;;80.83;;
50511;SDS011;36446;47.642;-3.018;2024-01-06T00:15:05;91.25;;;65.72;;
50511;SDS011;36446;47.642;-3.018;2024-01-06T00:17:34;72.03;;;52.67;;
50511;SDS011;36446;47.642;-3.018;2024-01-06T00:20:01;69.75;;;51.35;;
50511;SDS011;36446;47.642;-3.018;2024-01-06T00:22:29;55.10;;;41.38;;
50511;SDS011;36446;47.642;-3.018;2024-01-06T00:24:56;53.35;;;37.90;;
50511;SDS011;36446;47.642;-3.018;2024-01-06T00:27:24;51.28;;;35.92;;
50511;SDS011;36446;47.642;-3.018;2024-01-06T00:29:52;44.27;;;32.60;;
50511;SDS011;36446;47.642;-3.018;2024-01-06T00:32:19;45.55;;;32.28;;
50511;SDS011;36446;47.642;-3.018;2024-01-06T00:34:48;38.50;;;28.30;;
50511;SDS011;36446;47.642;-3.018;2024-01-06T00:37:15;37.47;;;27.70;;
50511;SDS011;36446;47.642;-3.018;2024-01-06T00:39:42;34.03;;;25.67;;
50511;SDS011;36446;47.642;-3.018;2024-01-06T00:42:09;31.67;;;23.50;;
50511;SDS011;36446;47.642;-3.018;2024-01-06T00:44:36;30.43;;;22.70;;
50511;SDS011;36446;47.642;-3.018;2024-01-06T00:47:04;28.77;;;21.63;;
50511;SDS011;36446;47.642;-3.018;2024-01-06T00:49:31;26.80;;;19.33;;
50511;SDS011;36446;47.642;-3.018;2024-01-06T00:51:59;24.42;;;18.45;;
50511;SDS011;36446;47.642;-3.018;2024-01-06T00:54:26;23.38;;;17.45;;
50511;SDS011;36446;47.642;-3.018;2024-01-06T00:56:54;21.80;;;15.77;;
50511;SDS011;36446;47.642;-3.018;2024-01-06T00:59:21;20.90;;;15.43;;
50511;SDS011;36446;47.642;-3.018;2024-01-06T01:01:48;20.00;;;14.93;;
50511;SDS011;36446;47.642;-3.018;2024-01-06T01:04:15;18.17;;;13.60;;
50511;SDS011;36446;47.642;-3.018;2024-01-06T01:06:42;16.60;;;12.80;;
50511;SDS011;36446;47.642;-3.018;2024-01-06T01:09:11;16.98;;;12.70;;
50511;SDS011;36446;47.642;-3.018;2024-01-06T01:11:39;17.33;;;12.25;;
50511;SDS011;36446;47.642;-3.018;2024-01-06T01:14:06;16.77;;;12.52;;
50511;SDS011;36446;47.642;-3.018;2024-01-06T01:16:33;16.35;;;11.70;;
50511;SDS011;36446;47.642;-3.018;2024-01-06T01:19:01;15.30;;;11.20;;
50511;SDS011;36446;47.642;-3.018;2024-01-06T01:21:28;14.25;;;11.07;;
50511;SDS011;36446;47.642;-3.018;2024-01-06T01:23:55;15.25;;;11.20;;
50511;SDS011;36446;47.642;-3.018;2024-01-06T01:26:24;15.30;;;11.25;;
50511;SDS011;36446;47.642;-3.018;2024-01-06T01:28:51;13.30;;;9.63;;
50511;SDS011;36446;47.642;-3.018;2024-01-06T01:31:18;13.05;;;9.02;;
50511;SDS011;36446;47.642;-3.018;2024-01-06T01:33:45;11.38;;;8.63;;
50511;SDS011;36446;47.642;-3.018;2024-01-06T01:36:13;13.60;;;9.25;;
50511;SDS011;36446;47.642;-3.018;2024-01-06T01:38:40;12.05;;;8.85;;
50511;SDS011;36446;47.642;-3.018;2024-01-06T01:41:07;11.88;;;8.35;;
50511;SDS011;36446;47.642;-3.018;2024-01-06T01:43:36;11.20;;;8.15;;
50511;SDS011;36446;47.642;-3.018;2024-01-06T01:46:03;9.98;;;6.97;;
50511;SDS011;36446;47.642;-3.018;2024-01-06T01:48:30;9.38;;;7.00;;
50511;SDS011;36446;47.642;-3.018;2024-01-06T01:50:59;10.10;;;6.70;;
50511;SDS011;36446;47.642;-3.018;2024-01-06T01:53:26;9.30;;;7.05;;
50511;SDS011;36446;47.642;-3.018;2024-01-06T01:55:53;8.63;;;6.50;;
50511;SDS011;36446;47.642;-3.018;2024-01-06T01:58:21;9.80;;;6.80;;
50511;SDS011;36446;47.642;-3.018;2024-01-06T02:00:50;8.75;;;6.25;;
50511;SDS011;36446;47.642;-3.018;2024-01-06T02:03:17;8.45;;;5.80;;
50511;SDS011;36446;47.642;-3.018;2024-01-06T02:05:45;8.38;;;6.03;;
50511;SDS011;36446;47.642;-3.018;2024-01-06T02:08:12;9.07;;;6.05;;
50511;SDS011;36446;47.642;-3.018;2024-01-06T02:10:39;9.10;;;6.13;;
50511;SDS011;36446;47.642;-3.018;2024-01-06T02:13:07;7.15;;;5.35;;
50511;SDS011;36446;47.642;-3.018;2024-01-06T02:15:35;7.85;;;5.20;;
50511;SDS011;36446;47.642;-3.018;2024-01-06T02:18:03;7.18;;;5.00;;
50511;SDS011;36446;47.642;-3.018;2024-01-06T02:20:31;8.18;;;4.63;;
50511;SDS011;36446;47.642;-3.018;2024-01-06T02:23:00;6.53;;;4.72;;
50511;SDS011;36446;47.642;-3.018;2024-01-06T02:25:27;7.15;;;4.72;;
50511;SDS011;36446;47.642;-3.018;2024-01-06T02:27:54;6.67;;;4.27;;
50511;SDS011;36446;47.642;-3.018;2024-01-06T02:30:21;6.93;;;4.47;;
50511;SDS011;36446;47.642;-3.018;2024-01-06T02:32:49;6.45;;;4.13;;
50511;SDS011;36446;47.642;-3.018;2024-01-06T02:35:16;6.80;;;4.35;;
50511;SDS011;36446;47.642;-3.018;2024-01-06T02:37:43;6.00;;;4.10;;
50511;SDS011;36446;47.642;-3.018;2024-01-06T02:40:12;6.70;;;4.10;;
50511;SDS011;36446;47.642;-3.018;2024-01-06T02:42:40;5.53;;;3.70;;
50511;SDS011;36446;47.642;-3.018;2024-01-06T02:45:07;4.75;;;3.50;;
50511;SDS011;36446;47.642;-3.018;2024-01-06T02:47:35;5.15;;;3.50;;
50511;SDS011;36446;47.642;-3.018;2024-01-06T02:50:03;5.30;;;3.70;;
50511;SDS011;36446;47.642;-3.018;2024-01-06T02:52:30;5.15;;;3.50;;
50511;SDS011;36446;47.642;-3.018;2024-01-06T02:54:57;4.87;;;3.33;;
50511;SDS011;36446;47.642;-3.018;2024-01-06T02:57:27;5.03;;;3.25;;
50511;SDS011;36446;47.642;-3.018;2024-01-06T02:59:54;4.72;;;3.38;;
50511;SDS011;36446;47.642;-3.018;2024-01-06T03:02:21;4.82;;;3.00;;
50511;SDS011;36446;47.642;-3.018;2024-01-06T03:04:48;4.73;;;3.00;;
50511;SDS011;36446;47.642;-3.018;2024-01-06T03:07:16;4.28;;;2.58;;
50511;SDS011;36446;47.642;-3.018;2024-01-06T03:09:43;3.78;;;2.55;;
50511;SDS011;36446;47.642;-3.018;2024-01-06T03:12:10;4.97;;;2.90;;
50511;SDS011;36446;47.642;-3.018;2024-01-06T03:14:39;3.55;;;2.67;;
50511;SDS011;36446;47.642;-3.018;2024-01-06T03:17:06;4.28;;;2.70;;
50511;SDS011;36446;47.642;-3.018;2024-01-06T03:19:35;3.85;;;2.53;;
50511;SDS011;36446;47.642;-3.018;2024-01-06T03:22:03;3.90;;;2.40;;
50511;SDS011;36446;47.642;-3.018;2024-01-06T03:24:30;4.80;;;2.60;;
50511;SDS011;36446;47.642;-3.018;2024-01-06T03:26:57;3.55;;;2.40;;
50511;SDS011;36446;47.642;-3.018;2024-01-06T03:29:24;4.60;;;2.75;;
50511;SDS011;36446;47.642;-3.018;2024-01-06T03:31:53;4.78;;;2.50;;
50511;SDS011;36446;47.642;-3.018;2024-01-06T03:34:20;3.50;;;2.50;;
50511;SDS011;36446;47.642;-3.018;2024-01-06T03:36:47;3.53;;;2.20;;
50511;SDS011;36446;47.642;-3.018;2024-01-06T03:39:14;3.60;;;2.20;;
50511;SDS011;36446;47.642;-3.018;2024-01-06T03:41:42;3.50;;;2.10;;
50511;SDS011;36446;47.642;-3.018;2024-01-06T03:44:09;2.63;;;1.90;;
50511;SDS011;36446;47.642;-3.018;2024-01-06T03:46:37;3.22;;;1.90;;
50511;SDS011;36446;47.642;-3.018;2024-01-06T03:49:05;4.05;;;2.30;;
50511;SDS011;36446;47.642;-3.018;2024-01-06T03:51:32;2.67;;;1.88;;
50511;SDS011;36446;47.642;-3.018;2024-01-06T03:54:00;2.60;;;2.00;;
50511;SDS011;36446;47.642;-3.018;2024-01-06T03:56:27;3.07;;;2.00;;
50511;SDS011;36446;47.642;-3.018;2024-01-06T03:58:54;3.03;;;1.90;;
50511;SDS011;36446;47.642;-3.018;2024-01-06T04:01:21;3.08;;;1.95;;
50511;SDS011;36446;47.642;-3.018;2024-01-06T04:03:48;2.90;;;1.83;;
50511;SDS011;36446;47.642;-3.018;2024-01-06T04:06:17;2.75;;;1.70;;
50511;SDS011;36446;47.642;-3.018;2024-01-06T04:08:44;3.30;;;1.70;;
50511;SDS011;36446;47.642;-3.018;2024-01-06T04:11:11;3.33;;;1.90;;
50511;SDS011;36446;47.642;-3.018;2024-01-06T04:13:38;2.80;;;1.88;;
50511;SDS011;36446;47.642;-3.018;2024-01-06T04:16:06;2.60;;;1.70;;
50511;SDS011;36446;47.642;-3.018;2024-01-06T04:18:33;2.92;;;1.65;;
50511;SDS011;36446;47.642;-3.018;2024-01-06T04:21:00;3.38;;;1.70;;
50511;SDS011;36446;47.642;-3.018;2024-01-06T04:23:29;1.77;;;1.40;;
50511;SDS011;36446;47.642;-3.018;2024-01-06T04:25:56;2.22;;;1.50;;
50511;SDS011;36446;47.642;-3.018;2024-01-06T04:28:23;3.03;;;1.60;;
50511;SDS011;36446;47.642;-3.018;2024-01-06T04:30:50;2.22;;;1.40;;
50511;SDS011;36446;47.642;-3.018;2024-01-06T04:33:18;1.97;;;1.27;;
50511;SDS011;36446;47.642;-3.018;2024-01-06T04:35:45;2.43;;;1.40;;
50511;SDS011;36446;47.642;-3.018;2024-01-06T04:38:12;2.65;;;1.50;;
50511;SDS011;36446;47.642;-3.018;2024-01-06T04:40:41;2.85;;;1.52;;
50511;SDS011;36446;47.642;-3.018;2024-01-06T04:43:08;2.75;;;1.50;;
50511;SDS011;36446;47.642;-3.018;2024-01-06T04:45:35;1.50;;;1.30;;
50511;SDS011;36446;47.642;-3.018;2024-01-06T04:48:03;2.60;;;1.50;;
50511;SDS011;36446;47.642;-3.018;2024-01-06T04:50:30;2.57;;;1.40;;
50511;SDS011;36446;47.642;-3.018;2024-01-06T04:52:57;2.35;;;1.30;;
50511;SDS011;36446;47.642;-3.018;2024-01-06T04:55:25;1.98;;;1.30;;
50511;SDS011;36446;47.642;-3.018;2024-01-06T04:57:53;2.80;;;1.42;;
50511;SDS011;36446;47.642;-3.018;2024-01-06T05:00:20;2.45;;;1.15;;
50511;SDS011;36446;47.642;-3.018;2024-01-06T05:02:47;2.50;;;1.30;;
50511;SDS011;36446;47.642;-3.018;2024-01-06T05:05:15;1.95;;;1.00;;
50511;SDS011;36446;47.642;-3.018;2024-01-06T05:07:42;1.90;;;1.20;;
50511;SDS011;36446;47.642;-3.018;2024-01-06T05:10:09;2.78;;;1.40;;
50511;SDS011;36446;47.642;-3.018;2024-01-06T05:12:36;2.08;;;1.20;;
50511;SDS011;36446;47.642;-3.018;2024-01-06T05:15:05;1.60;;;1.08;;
50511;SDS011;36446;47.642;-3.018;2024-01-06T05:17:33;1.73;;;1.17;;
50511;SDS011;36446;47.642;-3.018;2024-01-06T05:20:00;1.33;;;1.13;;
50511;SDS011;36446;47.642;-3.018;2024-01-06T05:22:28;1.60;;;1.10;;
50511;SDS011;36446;47.642;-3.018;2024-01-06T05:24:56;1.70;;;1.20;;
50511;SDS011;36446;47.642;-3.018;2024-01-06T05:27:23;1.83;;;1.10;;
50511;SDS011;36446;47.642;-3.018;2024-01-06T05:29:50;2.03;;;1.20;;
50511;SDS011;36446;47.642;-3.018;2024-01-06T05:32:19;3.00;;;1.38;;
50511;SDS011;36446;47.642;-3.018;2024-01-06T05:34:46;1.85;;;1.10;;
50511;SDS011;36446;47.642;-3.018;2024-01-06T05:37:13;3.00;;;1.20;;
50511;SDS011;36446;47.642;-3.018;2024-01-06T05:39:40;1.73;;;1.10;;
50511;SDS011;36446;47.642;-3.018;2024-01-06T05:42:09;2.65;;;1.08;;
50511;SDS011;36446;47.642;-3.018;2024-01-06T05:44:36;1.73;;;1.02;;
50511;SDS011;36446;47.642;-3.018;2024-01-06T05:47:04;2.13;;;1.10;;
50511;SDS011;36446;47.642;-3.018;2024-01-06T05:49:33;2.08;;;1.10;;
50511;SDS011;36446;47.642;-3.018;2024-01-06T05:52:00;1.33;;;1.00;;
50511;SDS011;36446;47.642;-3.018;2024-01-06T05:54:27;1.92;;;1.02;;
50511;SDS011;36446;47.642;-3.018;2024-01-06T05:56:55;2.45;;;1.20;;
50511;SDS011;36446;47.642;-3.018;2024-01-06T05:59:22;2.05;;;1.10;;
50511;SDS011;36446;47.642;-3.018;2024-01-06T06:01:49;1.80;;;1.00;;
50511;SDS011;36446;47.642;-3.018;2024-01-06T06:04:17;1.52;;;0.90;;
50511;SDS011;36446;47.642;-3.018;2024-01-06T06:06:46;2.58;;;1.10;;
50511;SDS011;36446;47.642;-3.018;2024-01-06T06:09:13;1.45;;;1.00;;
50511;SDS011;36446;47.642;-3.018;2024-01-06T06:11:40;1.83;;;0.97;;
50511;SDS011;36446;47.642;-3.018;2024-01-06T06:14:08;1.98;;;1.10;;
50511;SDS011;36446;47.642;-3.018;2024-01-06T06:16:35;1.92;;;1.08;;
50511;SDS011;36446;47.642;-3.018;2024-01-06T06:19:02;3.67;;;1.20;;
50511;SDS011;36446;47.642;-3.018;2024-01-06T06:21:30;2.53;;;1.33;;
50511;SDS011;36446;47.642;-3.018;2024-01-06T06:23:58;2.95;;;1.10;;
50511;SDS011;36446;47.642;-3.018;2024-01-06T06:26:25;1.88;;;1.10;;
50511;SDS011;36446;47.642;-3.018;2024-01-06T06:28:53;2.07;;;1.10;;
50511;SDS011;36446;47.642;-3.018;2024-01-06T06:31:20;1.70;;;1.10;;
50511;SDS011;36446;47.642;-3.018;2024-01-06T06:33:47;1.40;;;0.90;;
50511;SDS011;36446;47.642;-3.018;2024-01-06T06:36:14;1.80;;;0.98;;
50511;SDS011;36446;47.642;-3.018;2024-01-06T06:38:41;2.70;;;1.20;;
50511;SDS011;36446;47.642;-3.018;2024-01-06T06:41:10;2.40;;;1.15;;
50511;SDS011;36446;47.642;-3.018;2024-01-06T06:43:37;1.75;;;1.00;;
50511;SDS011;36446;47.642;-3.018;2024-01-06T06:46:04;2.55;;;1.00;;
50511;SDS011;36446;47.642;-3.018;2024-01-06T06:48:32;1.67;;;1.17;;
50511;SDS011;36446;47.642;-3.018;2024-01-06T06:51:00;2.22;;;1.20;;
50511;SDS011;36446;47.642;-3.018;2024-01-06T06:53:28;2.60;;;1.08;;
50511;SDS011;36446;47.642;-3.018;2024-01-06T06:55:55;2.28;;;1.10;;
50511;SDS011;36446;47.642;-3.018;2024-01-06T06:58:23;1.52;;;1.10;;
50511;SDS011;36446;47.642;-3.018;2024-01-06T07:00:51;2.65;;;1.27;;
50511;SDS011;36446;47.642;-3.018;2024-01-06T07:03:19;2.22;;;1.10;;
50511;SDS011;36446;47.642;-3.018;2024-01-06T07:05:46;2.83;;;1.15;;
50511;SDS011;36446;47.642;-3.018;2024-01-06T07:08:13;1.75;;;1.00;;
50511;SDS011;36446;47.642;-3.018;2024-01-06T07:10:41;1.37;;;0.97;;
50511;SDS011;36446;47.642;-3.018;2024-01-06T07:13:08;2.38;;;0.98;;
50511;SDS011;36446;47.642;-3.018;2024-01-06T07:15:36;1.60;;;0.80;;
50511;SDS011;36446;47.642;-3.018;2024-01-06T07:18:04;2.05;;;0.98;;
50511;SDS011;36446;47.642;-3.018;2024-01-06T07:20:31;2.22;;;1.00;;
50511;SDS011;36446;47.642;-3.018;2024-01-06T07:22:58;2.63;;;1.00;;
50511;SDS011;36446;47.642;-3.018;2024-01-06T07:25:28;1.35;;;1.00;;
50511;SDS011;36446;47.642;-3.018;2024-01-06T07:27:56;1.60;;;1.00;;
50511;SDS011;36446;47.642;-3.018;2024-01-06T07:30:23;1.50;;;0.93;;
50511;SDS011;36446;47.642;-3.018;2024-01-06T07:32:52;2.60;;;1.00;;
50511;SDS011;36446;47.642;-3.018;2024-01-06T07:35:19;2.53;;;1.08;;
50511;SDS011;36446;47.642;-3.018;2024-01-06T07:37:46;1.97;;;1.00;;
50511;SDS011;36446;47.642;-3.018;2024-01-06T07:40:13;2.35;;;1.15;;
50511;SDS011;36446;47.642;-3.018;2024-01-06T07:42:41;4.72;;;1.17;;
50511;SDS011;36446;47.642;-3.018;2024-01-06T07:45:09;2.37;;;1.03;;
50511;SDS011;36446;47.642;-3.018;2024-01-06T07:47:37;3.33;;;1.03;;
50511;SDS011;36446;47.642;-3.018;2024-01-06T07:50:06;2.22;;;1.10;;
50511;SDS011;36446;47.642;-3.018;2024-01-06T07:52:33;4.35;;;1.20;;
50511;SDS011;36446;47.642;-3.018;2024-01-06T07:55:00;4.63;;;1.30;;
50511;SDS011;36446;47.642;-3.018;2024-01-06T07:57:28;2.05;;;0.90;;
50511;SDS011;36446;47.642;-3.018;2024-01-06T07:59:55;3.15;;;1.20;;
50511;SDS011;36446;47.642;-3.018;2024-01-06T08:02:22;4.43;;;1.10;;
50511;SDS011;36446;47.642;-3.018;2024-01-06T08:04:50;2.72;;;1.00;;
50511;SDS011;36446;47.642;-3.018;2024-01-06T08:07:19;8.15;;;1.30;;
50511;SDS011;36446;47.642;-3.018;2024-01-06T08:09:46;3.53;;;1.20;;
50511;SDS011;36446;47.642;-3.018;2024-01-06T08:12:14;3.65;;;1.10;;
50511;SDS011;36446;47.642;-3.018;2024-01-06T08:14:41;3.00;;;1.20;;
50511;SDS011;36446;47.642;-3.018;2024-01-06T08:17:09;3.05;;;0.98;;
50511;SDS011;36446;47.642;-3.018;2024-01-06T08:19:36;3.22;;;0.90;;
50511;SDS011;36446;47.642;-3.018;2024-01-06T08:22:03;4.28;;;1.20;;
50511;SDS011;36446;47.642;-3.018;2024-01-06T08:24:32;2.60;;;1.20;;
50511;SDS011;36446;47.642;-3.018;2024-01-06T08:26:59;2.97;;;0.80;;
50511;SDS011;36446;47.642;-3.018;2024-01-06T08:29:26;3.57;;;1.00;;
50511;SDS011;36446;47.642;-3.018;2024-01-06T08:31:54;3.80;;;0.80;;
50511;SDS011;36446;47.642;-3.018;2024-01-06T08:34:21;1.88;;;0.80;;
50511;SDS011;36446;47.642;-3.018;2024-01-06T08:36:48;2.80;;;0.90;;
50511;SDS011;36446;47.642;-3.018;2024-01-06T08:39:16;1.52;;;0.82;;
50511;SDS011;36446;47.642;-3.018;2024-01-06T08:41:44;1.85;;;0.80;;
50511;SDS011;36446;47.642;-3.018;2024-01-06T08:44:13;3.00;;;1.00;;
50511;SDS011;36446;47.642;-3.018;2024-01-06T08:46:40;1.88;;;0.80;;
50511;SDS011;36446;47.642;-3.018;2024-01-06T08:49:07;2.08;;;0.98;;
50511;SDS011;36446;47.642;-3.018;2024-01-06T08:51:34;2.80;;;0.90;;
50511;SDS011;36446;47.642;-3.018;2024-01-06T08:54:01;3.10;;;0.90;;
50511;SDS011;36446;47.642;-3.018;2024-01-06T08:56:30;2.05;;;0.98;;
50511;SDS011;36446;47.642;-3.018;2024-01-06T08:58:59;2.50;;;0.75;;
50511;SDS011;36446;47.642;-3.018;2024-01-06T09:01:26;2.05;;;0.90;;
50511;SDS011;36446;47.642;-3.018;2024-01-06T09:03:53;3.10;;;1.00;;
50511;SDS011;36446;47.642;-3.018;2024-01-06T09:06:20;3.70;;;1.00;;
50511;SDS011;36446;47.642;-3.018;2024-01-06T09:08:48;8.18;;;1.30;;
50511;SDS011;36446;47.642;-3.018;2024-01-06T09:11:15;3.92;;;0.98;;
50511;SDS011;36446;47.642;-3.018;2024-01-06T09:13:42;2.75;;;0.80;;
50511;SDS011;36446;47.642;-3.018;2024-01-06T09:16:11;3.40;;;1.02;;
50511;SDS011;36446;47.642;-3.018;2024-01-06T09:18:38;3.50;;;1.02;;
50511;SDS011;36446;47.642;-3.018;2024-01-06T09:21:05;2.95;;;0.90;;
50511;SDS011;36446;47.642;-3.018;2024-01-06T09:23:33;2.38;;;0.70;;
50511;SDS011;36446;47.642;-3.018;2024-01-06T09:26:00;3.38;;;0.77;;
50511;SDS011;36446;47.642;-3.018;2024-01-06T09:28:28;2.20;;;0.90;;
50511;SDS011;36446;47.642;-3.018;2024-01-06T09:30:55;7.82;;;0.93;;
50511;SDS011;36446;47.642;-3.018;2024-01-06T09:33:24;6.95;;;1.10;;
50511;SDS011;36446;47.642;-3.018;2024-01-06T09:35:51;3.37;;;1.97;;
50511;SDS011;36446;47.642;-3.018;2024-01-06T09:38:18;9.98;;;6.53;;
50511;SDS011;36446;47.642;-3.018;2024-01-06T09:40:45;8.35;;;4.18;;
50511;SDS011;36446;47.642;-3.018;2024-01-06T09:43:13;9.43;;;4.78;;
50511;SDS011;36446;47.642;-3.018;2024-01-06T09:45:40;12.13;;;6.10;;
50511;SDS011;36446;47.642;-3.018;2024-01-06T09:48:09;9.73;;;5.60;;
50511;SDS011;36446;47.642;-3.018;2024-01-06T09:50:39;11.13;;;6.80;;
50511;SDS011;36446;47.642;-3.018;2024-01-06T09:53:08;11.53;;;7.73;;
50511;SDS011;36446;47.642;-3.018;2024-01-06T09:55:36;12.52;;;6.60;;
50511;SDS011;36446;47.642;-3.018;2024-01-06T09:58:03;10.55;;;6.43;;
50511;SDS011;36446;47.642;-3.018;2024-01-06T10:00:31;10.57;;;5.60;;
50511;SDS011;36446;47.642;-3.018;2024-01-06T10:02:58;9.10;;;5.70;;
50511;SDS011;36446;47.642;-3.018;2024-01-06T10:05:25;8.60;;;5.50;;
50511;SDS011;36446;47.642;-3.018;2024-01-06T10:07:54;8.52;;;5.60;;
50511;SDS011;36446;47.642;-3.018;2024-01-06T10:10:22;8.27;;;5.67;;
50511;SDS011;36446;47.642;-3.018;2024-01-06T10:12:52;10.25;;;5.75;;
50511;SDS011;36446;47.642;-3.018;2024-01-06T10:15:19;8.30;;;5.25;;
50511;SDS011;36446;47.642;-3.018;2024-01-06T10:17:47;8.63;;;5.18;;
50511;SDS011;36446;47.642;-3.018;2024-01-06T10:20:15;6.25;;;4.45;;
50511;SDS011;36446;47.642;-3.018;2024-01-06T10:22:45;6.82;;;4.20;;
50511;SDS011;36446;47.642;-3.018;2024-01-06T10:25:14;6.72;;;3.92;;
50511;SDS011;36446;47.642;-3.018;2024-01-06T10:27:41;5.78;;;3.90;;
50511;SDS011;36446;47.642;-3.018;2024-01-06T10:30:09;6.03;;;4.13;;
50511;SDS011;36446;47.642;-3.018;2024-01-06T10:32:38;6.03;;;3.45;;
50511;SDS011;36446;47.642;-3.018;2024-01-06T10:35:06;5.22;;;3.40;;
50511;SDS011;36446;47.642;-3.018;2024-01-06T10:37:34;5.85;;;3.25;;
50511;SDS011;36446;47.642;-3.018;2024-01-06T10:40:10;7.60;;;3.20;;
50511;SDS011;36446;47.642;-3.018;2024-01-06T10:42:39;4.97;;;3.50;;
50511;SDS011;36446;47.642;-3.018;2024-01-06T10:45:08;5.50;;;3.08;;
50511;SDS011;36446;47.642;-3.018;2024-01-06T10:47:35;8.23;;;3.58;;
50511;SDS011;36446;47.642;-3.018;2024-01-06T10:50:03;10.85;;;3.63;;
50511;SDS011;36446;47.642;-3.018;2024-01-06T10:52:31;6.97;;;3.65;;
50511;SDS011;36446;47.642;-3.018;2024-01-06T10:54:59;10.25;;;3.80;;
50511;SDS011;36446;47.642;-3.018;2024-01-06T10:57:27;10.35;;;4.18;;
50511;SDS011;36446;47.642;-3.018;2024-01-06T10:59:58;13.32;;;4.32;;
50511;SDS011;36446;47.642;-3.018;2024-01-06T11:02:26;12.15;;;3.92;;
50511;SDS011;36446;47.642;-3.018;2024-01-06T11:04:53;20.80;;;5.75;;
50511;SDS011;36446;47.642;-3.018;2024-01-06T11:07:21;19.33;;;4.80;;
50511;SDS011;36446;47.642;-3.018;2024-01-06T11:09:50;15.15;;;4.65;;
50511;SDS011;36446;47.642;-3.018;2024-01-06T11:12:18;12.98;;;3.72;;
50511;SDS011;36446;47.642;-3.018;2024-01-06T11:14:46;10.32;;;3.35;;
50511;SDS011;36446;47.642;-3.018;2024-01-06T11:17:14;6.53;;;2.60;;
50511;SDS011;36446;47.642;-3.018;2024-01-06T11:20:04;6.82;;;2.38;;
50511;SDS011;36446;47.642;-3.018;2024-01-06T11:22:32;7.80;;;2.55;;
50511;SDS011;36446;47.642;-3.018;2024-01-06T11:25:05;7.32;;;2.25;;
50511;SDS011;36446;47.642;-3.018;2024-01-06T11:27:33;7.50;;;2.30;;
50511;SDS011;36446;47.642;-3.018;2024-01-06T11:30:01;6.43;;;2.00;;
50511;SDS011;36446;47.642;-3.018;2024-01-06T11:32:32;7.35;;;1.80;;
50511;SDS011;36446;47.642;-3.018;2024-01-06T11:35:05;4.53;;;1.60;;
50511;SDS011;36446;47.642;-3.018;2024-01-06T11:37:37;4.88;;;1.52;;
50511;SDS011;36446;47.642;-3.018;2024-01-06T11:40:08;4.07;;;1.48;;
50511;SDS011;36446;47.642;-3.018;2024-01-06T11:42:35;4.93;;;1.40;;
50511;SDS011;36446;47.642;-3.018;2024-01-06T11:45:03;4.13;;;1.55;;
50511;SDS011;36446;47.642;-3.018;2024-01-06T11:47:33;3.28;;;1.40;;
50511;SDS011;36446;47.642;-3.018;2024-01-06T11:50:00;3.17;;;1.10;;
50511;SDS011;36446;47.642;-3.018;2024-01-06T11:52:29;2.42;;;1.08;;
50511;SDS011;36446;47.642;-3.018;2024-01-06T11:54:57;3.15;;;1.30;;
50511;SDS011;36446;47.642;-3.018;2024-01-06T11:57:24;2.15;;;1.05;;
50511;SDS011;36446;47.642;-3.018;2024-01-06T11:59:52;2.83;;;1.15;;
50511;SDS011;36446;47.642;-3.018;2024-01-06T12:02:20;2.57;;;1.13;;
50511;SDS011;36446;47.642;-3.018;2024-01-06T12:04:49;3.67;;;1.30;;
50511;SDS011;36446;47.642;-3.018;2024-01-06T12:07:17;1.67;;;1.00;;
50511;SDS011;36446;47.642;-3.018;2024-01-06T12:09:45;2.00;;;0.90;;
50511;SDS011;36446;47.642;-3.018;2024-01-06T12:12:14;1.70;;;0.85;;
50511;SDS011;36446;47.642;-3.018;2024-01-06T12:14:42;4.38;;;1.10;;
50511;SDS011;36446;47.642;-3.018;2024-01-06T12:17:10;2.97;;;1.20;;
50511;SDS011;36446;47.642;-3.018;2024-01-06T12:19:38;2.30;;;1.02;;
50511;SDS011;36446;47.642;-3.018;2024-01-06T12:22:09;3.07;;;1.20;;
50511;SDS011;36446;47.642;-3.018;2024-01-06T12:24:36;4.22;;;1.00;;
50511;SDS011;36446;47.642;-3.018;2024-01-06T12:27:06;3.67;;;1.07;;
50511;SDS011;36446;47.642;-3.018;2024-01-06T12:29:36;2.50;;;0.90;;
50511;SDS011;36446;47.642;-3.018;2024-01-06T12:32:05;2.60;;;1.17;;
50511;SDS011;36446;47.642;-3.018;2024-01-06T12:34:33;2.05;;;0.98;;
50511;SDS011;36446;47.642;-3.018;2024-01-06T12:37:00;2.25;;;0.90;;
50511;SDS011;36446;47.642;-3.018;2024-01-06T12:39:29;2.50;;;0.80;;
50511;SDS011;36446;47.642;-3.018;2024-01-06T12:41:57;0.82;;;0.60;;
50511;SDS011;36446;47.642;-3.018;2024-01-06T12:44:25;2.00;;;0.80;;
50511;SDS011;36446;47.642;-3.018;2024-01-06T12:46:53;1.48;;;0.70;;
50511;SDS011;36446;47.642;-3.018;2024-01-06T12:49:20;2.03;;;0.70;;
50511;SDS011;36446;47.642;-3.018;2024-01-06T12:51:47;2.47;;;0.75;;
50511;SDS011;36446;47.642;-3.018;2024-01-06T12:54:15;1.85;;;0.70;;
50511;SDS011;36446;47.642;-3.018;2024-01-06T12:56:44;1.60;;;0.80;;
50511;SDS011;36446;47.642;-3.018;2024-01-06T12:59:11;1.48;;;0.70;;
50511;SDS011;36446;47.642;-3.018;2024-01-06T13:01:38;2.37;;;0.80;;
50511;SDS011;36446;47.642;-3.018;2024-01-06T13:04:07;2.50;;;1.00;;
50511;SDS011;36446;47.642;-3.018;2024-01-06T13:06:35;1.88;;;0.90;;
50511;SDS011;36446;47.642;-3.018;2024-01-06T13:09:02;1.83;;;0.70;;
50511;SDS011;36446;47.642;-3.018;2024-01-06T13:11:31;1.60;;;0.80;;
50511;SDS011;36446;47.642;-3.018;2024-01-06T13:14:00;1.70;;;0.65;;
50511;SDS011;36446;47.642;-3.018;2024-01-06T13:16:28;1.75;;;0.70;;
50511;SDS011;36446;47.642;-3.018;2024-01-06T13:18:55;1.17;;;0.68;;
50511;SDS011;36446;47.642;-3.018;2024-01-06T13:21:22;2.03;;;0.70;;
50511;SDS011;36446;47.642;-3.018;2024-01-06T13:23:50;2.67;;;0.80;;
50511;SDS011;36446;47.642;-3.018;2024-01-06T13:26:17;3.83;;;0.80;;
50511;SDS011;36446;47.642;-3.018;2024-01-06T13:28:44;1.45;;;0.80;;
50511;SDS011;36446;47.642;-3.018;2024-01-06T13:31:13;2.15;;;0.80;;
50511;SDS011;36446;47.642;-3.018;2024-01-06T13:33:40;2.97;;;0.90;;
50511;SDS011;36446;47.642;-3.018;2024-01-06T13:36:07;1.93;;;0.70;;
50511;SDS011;36446;47.642;-3.018;2024-01-06T13:38:35;2.83;;;0.80;;
50511;SDS011;36446;47.642;-3.018;2024-01-06T13:41:02;2.30;;;0.70;;
50511;SDS011;36446;47.642;-3.018;2024-01-06T13:43:29;2.95;;;0.75;;
50511;SDS011;36446;47.642;-3.018;2024-01-06T13:45:57;1.50;;;0.70;;
50511;SDS011;36446;47.642;-3.018;2024-01-06T13:48:25;2.30;;;0.70;;
50511;SDS011;36446;47.642;-3.018;2024-01-06T13:50:53;1.92;;;0.82;;
50511;SDS011;36446;47.642;-3.018;2024-01-06T13:53:21;2.58;;;0.75;;
50511;SDS011;36446;47.642;-3.018;2024-01-06T13:55:48;1.40;;;0.70;;
50511;SDS011;36446;47.642;-3.018;2024-01-06T13:58:16;1.38;;;0.80;;
50511;SDS011;36446;47.642;-3.018;2024-01-06T14:00:44;2.53;;;0.73;;
50511;SDS011;36446;47.642;-3.018;2024-01-06T14:03:11;2.92;;;0.80;;
50511;SDS011;36446;47.642;-3.018;2024-01-06T14:05:40;1.00;;;0.60;;
50511;SDS011;36446;47.642;-3.018;2024-01-06T14:08:07;1.70;;;0.60;;
50511;SDS011;36446;47.642;-3.018;2024-01-06T14:10:34;2.78;;;0.98;;
50511;SDS011;36446;47.642;-3.018;2024-01-06T14:13:03;2.47;;;0.60;;
50511;SDS011;36446;47.642;-3.018;2024-01-06T14:15:32;1.13;;;0.60;;
50511;SDS011;36446;47.642;-3.018;2024-01-06T14:18:00;2.35;;;1.00;;
50511;SDS011;36446;47.642;-3.018;2024-01-06T14:20:27;2.10;;;0.70;;
50511;SDS011;36446;47.642;-3.018;2024-01-06T14:22:58;1.43;;;0.70;;
50511;SDS011;36446;47.642;-3.018;2024-01-06T14:25:25;1.45;;;0.90;;
50511;SDS011;36446;47.642;-3.018;2024-01-06T14:27:52;1.75;;;0.80;;
50511;SDS011;36446;47.642;-3.018;2024-01-06T14:30:19;3.17;;;0.98;;
50511;SDS011;36446;47.642;-3.018;2024-01-06T14:32:47;5.55;;;1.20;;